This is the latest recevied weather packets stored in our database for station/object HB9KBJ-8. If no packets are shown the sender has not sent any weather packets the latest 10 day(s).
| Time | Temp. | Humidity | Pressure | Rain* | Wind** | Luminosity | Snow |
|---|---|---|---|---|---|---|---|
| 1778158036 | 15.56° C | 66% | 1014.5 hPa | 0 mm | - | 190 W/m² | - |
| 1778157736 | 15.56° C | 65% | 1014.6 hPa | 0 mm | - | 227 W/m² | - |
| 1778157455 | 16.11° C | 65% | 1014.6 hPa | 0 mm | - | 311 W/m² | - |
| 1778157147 | 16.11° C | 63% | 1014.6 hPa | 0 mm | - | 738 W/m² | - |
| 1778156846 | 15° C | 70% | 1014.6 hPa | 0 mm | - | 455 W/m² | - |
| 1778156543 | 14.44° C | 71% | 1014.6 hPa | 0 mm | - | 388 W/m² | - |
| 1778156242 | 14.44° C | 70% | 1014.5 hPa | 0 mm | - | 327 W/m² | - |
| 1778155941 | 15.56° C | 67% | 1014.5 hPa | 0 mm | - | 288 W/m² | - |
| 1778155634 | 16.11° C | 70% | 1014.6 hPa | 0 mm | - | 1041 W/m² | - |
| 1778155342 | 15.56° C | 70% | 1014.6 hPa | 0 mm | - | 921 W/m² | - |
| 1778155055 | 15° C | 71% | 1014.6 hPa | 0 mm | - | 860 W/m² | - |
| 1778154751 | 14.44° C | 73% | 1014.6 hPa | 0 mm | - | 926 W/m² | - |
| 1778154445 | 13.89° C | 72% | 1014.6 hPa | 0 mm | - | 248 W/m² | - |
| 1778154142 | 14.44° C | 73% | 1014.7 hPa | 0 mm | - | 388 W/m² | - |
| 1778153842 | 13.89° C | 76% | 1014.7 hPa | 0 mm | - | 388 W/m² | - |
| 1778153536 | 13.89° C | 73% | 1014.7 hPa | 0 mm | - | 278 W/m² | - |
| 1778153250 | 13.89° C | 73% | 1014.8 hPa | 0 mm | - | 302 W/m² | - |
| 1778152947 | 13.89° C | 74% | 1014.8 hPa | 0 mm | - | 345 W/m² | - |
| 1778152648 | 14.44° C | 73% | 1014.7 hPa | 0 mm | - | 318 W/m² | - |
| 1778152346 | 13.89° C | 74% | 1014.7 hPa | 0 mm | - | 318 W/m² | - |
| 1778152041 | 13.89° C | 71% | 1014.7 hPa | 0 mm | - | 190 W/m² | - |
| 1778151736 | 15° C | 68% | 1014.7 hPa | 0 mm | - | 229 W/m² | - |
| 1778151450 | 15.56° C | 67% | 1014.6 hPa | 0 mm | - | 332 W/m² | - |
| 1778151144 | 15.56° C | 64% | 1014.7 hPa | 0 mm | - | 427 W/m² | - |
| 1778150844 | 15.56° C | 65% | 1014.7 hPa | 0 mm | - | 962 W/m² | - |
* Rain latest hour (hover to see other rain measurements)
** Current wind speed in m/s (hover to see current wind gust speed)